createdAt,value
2018-12-31T00:01:23.552Z,9.30
2018-12-31T00:04:05.088Z,9.30
2018-12-31T00:06:35.015Z,9.30
2018-12-31T00:09:23.953Z,9.30
2018-12-31T00:11:54.041Z,9.20
2018-12-31T00:14:42.767Z,9.30
2018-12-31T00:17:24.405Z,9.30
2018-12-31T00:20:05.820Z,9.30
2018-12-31T00:22:47.540Z,9.30
2018-12-31T00:25:17.261Z,9.30
2018-12-31T00:28:06.212Z,9.30
2018-12-31T00:30:47.061Z,9.30
2018-12-31T00:33:28.748Z,9.30
2018-12-31T00:36:09.939Z,9.30
2018-12-31T00:38:51.318Z,9.30
2018-12-31T00:41:32.489Z,9.30
2018-12-31T00:44:14.161Z,9.30
2018-12-31T00:46:55.495Z,9.30
2018-12-31T00:49:37.229Z,9.30
2018-12-31T00:52:07.066Z,9.40
2018-12-31T00:54:55.872Z,9.30
2018-12-31T00:57:36.783Z,9.40
2018-12-31T01:00:18.584Z,9.40
2018-12-31T01:03:00.065Z,9.40
2018-12-31T01:05:41.544Z,9.40
2018-12-31T01:08:22.391Z,9.40
2018-12-31T01:10:52.042Z,9.40
2018-12-31T01:13:40.778Z,9.40
2018-12-31T01:16:21.712Z,9.40
2018-12-31T01:19:03.523Z,9.40
2018-12-31T01:21:44.917Z,9.40
2018-12-31T01:24:25.893Z,9.40
2018-12-31T01:26:55.819Z,9.40
2018-12-31T01:29:25.479Z,9.40
2018-12-31T01:32:14.180Z,9.40
2018-12-31T01:34:43.874Z,9.40
2018-12-31T01:37:32.668Z,9.40
2018-12-31T01:40:13.778Z,9.50
2018-12-31T01:42:55.214Z,9.50
2018-12-31T01:45:25.067Z,9.40
2018-12-31T01:48:13.832Z,9.40
2018-12-31T01:51:02.906Z,9.40
2018-12-31T01:53:51.603Z,9.40
2018-12-31T01:56:33.149Z,9.40
2018-12-31T01:59:12.892Z,9.50
2018-12-31T02:02:01.981Z,9.50
2018-12-31T02:04:43.551Z,9.50
2018-12-31T02:07:24.802Z,9.50
2018-12-31T02:10:06.470Z,9.50
2018-12-31T02:12:48.097Z,9.60
2018-12-31T02:15:29.281Z,9.60
2018-12-31T02:18:11.053Z,9.60
2018-12-31T02:20:52.044Z,9.60
2018-12-31T02:23:33.804Z,9.70
2018-12-31T02:26:15.178Z,9.60
2018-12-31T02:28:56.920Z,9.60
2018-12-31T02:31:37.859Z,9.70
2018-12-31T02:34:07.592Z,9.70
2018-12-31T02:36:56.487Z,9.70
2018-12-31T02:39:45.167Z,9.70
2018-12-31T02:42:25.884Z,9.70
2018-12-31T02:45:07.290Z,9.60
2018-12-31T02:47:37.129Z,9.70
2018-12-31T02:50:25.839Z,9.70
2018-12-31T02:53:07.500Z,9.70
2018-12-31T02:55:48.631Z,9.70
2018-12-31T02:58:30.607Z,9.80
2018-12-31T03:01:11.753Z,9.80
2018-12-31T03:03:51.629Z,9.80
2018-12-31T03:06:21.367Z,9.80
2018-12-31T03:09:10.218Z,9.80
2018-12-31T03:11:51.500Z,9.80
2018-12-31T03:14:32.664Z,9.80
2018-12-31T03:17:02.376Z,9.80
2018-12-31T03:19:51.067Z,9.80
2018-12-31T03:22:39.678Z,9.80
2018-12-31T03:25:21.310Z,9.80
2018-12-31T03:27:50.996Z,9.90
2018-12-31T03:30:39.856Z,9.90
2018-12-31T03:33:28.521Z,9.90
2018-12-31T03:36:17.443Z,9.90
2018-12-31T03:38:58.678Z,9.90
2018-12-31T03:41:40.460Z,9.80
2018-12-31T03:44:22.023Z,9.90
2018-12-31T03:47:03.061Z,9.90
2018-12-31T03:49:44.097Z,9.80
2018-12-31T03:52:25.778Z,9.80
2018-12-31T03:55:08.174Z,9.80
2018-12-31T03:57:49.541Z,9.80
2018-12-31T04:00:19.165Z,9.80
2018-12-31T04:03:08.021Z,9.90
2018-12-31T04:05:37.737Z,9.90
2018-12-31T04:08:26.798Z,9.80
2018-12-31T04:11:15.587Z,9.80
2018-12-31T04:13:45.417Z,9.80
2018-12-31T04:16:15.069Z,9.90
2018-12-31T04:19:04.017Z,9.80
2018-12-31T04:21:52.766Z,9.80
2018-12-31T04:24:34.615Z,9.80
2018-12-31T04:27:15.984Z,9.80
2018-12-31T04:29:57.156Z,9.90
2018-12-31T04:32:26.861Z,9.90
2018-12-31T04:35:15.546Z,9.90
2018-12-31T04:38:04.307Z,9.90
2018-12-31T04:40:34.286Z,9.80
2018-12-31T04:43:22.965Z,9.80
2018-12-31T04:46:11.887Z,9.80
2018-12-31T04:48:41.613Z,9.80
2018-12-31T04:51:30.573Z,9.80
2018-12-31T04:54:00.524Z,9.80
2018-12-31T04:56:49.189Z,9.80
2018-12-31T04:59:30.422Z,9.80
2018-12-31T05:02:11.691Z,9.80
2018-12-31T05:04:53.303Z,9.80
2018-12-31T05:07:34.750Z,9.80
2018-12-31T05:10:04.871Z,9.80
2018-12-31T05:12:34.493Z,9.80
2018-12-31T05:15:23.155Z,9.80
2018-12-31T05:18:12.014Z,9.80
2018-12-31T05:20:53.253Z,9.80
2018-12-31T05:23:35.074Z,9.80
2018-12-31T05:26:05.058Z,9.80
2018-12-31T05:28:53.739Z,9.80
2018-12-31T05:31:34.710Z,9.80
2018-12-31T05:34:15.582Z,9.80
2018-12-31T05:36:56.882Z,9.70
2018-12-31T05:39:38.567Z,9.70
2018-12-31T05:42:20.074Z,9.70
2018-12-31T05:45:01.097Z,9.70
2018-12-31T05:47:41.951Z,9.60
2018-12-31T05:50:23.439Z,9.70
2018-12-31T05:53:05.083Z,9.70
2018-12-31T05:55:46.785Z,9.70
2018-12-31T05:58:27.628Z,9.70
2018-12-31T06:01:09.249Z,9.70
2018-12-31T06:03:49.086Z,9.70
2018-12-31T06:06:37.760Z,9.70
2018-12-31T06:09:18.688Z,9.70
2018-12-31T06:11:59.772Z,9.70
2018-12-31T06:14:29.826Z,9.70
2018-12-31T06:17:10.729Z,9.70
2018-12-31T06:19:51.525Z,9.70
2018-12-31T06:22:21.175Z,9.70
2018-12-31T06:25:09.785Z,9.70
2018-12-31T06:27:58.369Z,9.70
2018-12-31T06:30:40.214Z,9.70
2018-12-31T06:33:21.740Z,9.70
2018-12-31T06:36:03.174Z,9.70
2018-12-31T06:38:45.023Z,9.70
2018-12-31T06:41:15.217Z,9.60
2018-12-31T06:44:04.139Z,9.60
2018-12-31T06:46:45.105Z,9.60
2018-12-31T06:49:26.400Z,9.60
2018-12-31T06:51:56.162Z,9.60
2018-12-31T06:54:45.021Z,9.60
2018-12-31T06:57:25.986Z,9.60
2018-12-31T07:00:06.847Z,9.60
2018-12-31T07:02:48.715Z,9.60
2018-12-31T07:05:19.105Z,9.60
2018-12-31T07:07:48.701Z,9.60
2018-12-31T07:10:18.506Z,9.60
2018-12-31T07:13:07.444Z,9.60
2018-12-31T07:15:48.541Z,9.60
2018-12-31T07:18:30.102Z,9.60
2018-12-31T07:21:11.788Z,9.60
2018-12-31T07:23:53.247Z,9.70
2018-12-31T07:26:34.744Z,9.70
2018-12-31T07:29:16.590Z,9.70
2018-12-31T07:31:57.677Z,9.70
2018-12-31T07:34:39.466Z,9.70
2018-12-31T07:37:20.537Z,9.70
2018-12-31T07:40:00.652Z,9.70
2018-12-31T07:42:41.936Z,9.70
2018-12-31T07:45:23.494Z,9.70
2018-12-31T07:48:04.992Z,9.70
2018-12-31T07:50:34.698Z,9.70
2018-12-31T07:53:04.883Z,9.70
2018-12-31T07:55:34.649Z,9.70
2018-12-31T07:58:23.634Z,9.70
2018-12-31T08:01:12.841Z,9.80
2018-12-31T08:03:54.436Z,9.80
2018-12-31T08:06:35.441Z,9.80
2018-12-31T08:09:17.240Z,9.80
2018-12-31T08:11:58.715Z,9.80
2018-12-31T08:14:40.190Z,9.80
2018-12-31T08:17:21.271Z,9.80
2018-12-31T08:20:02.298Z,9.80
2018-12-31T08:22:43.944Z,9.80
2018-12-31T08:25:25.814Z,9.80
2018-12-31T08:28:07.359Z,9.80
2018-12-31T08:30:48.303Z,9.80
2018-12-31T08:33:29.833Z,9.90
2018-12-31T08:36:11.579Z,9.90
2018-12-31T08:38:53.083Z,9.90
2018-12-31T08:41:34.295Z,9.90
2018-12-31T08:44:15.957Z,9.90
2018-12-31T08:46:56.947Z,10.00
2018-12-31T08:49:38.422Z,9.90
2018-12-31T08:52:19.847Z,10.00
2018-12-31T08:55:00.931Z,10.00
2018-12-31T08:57:30.900Z,9.90
2018-12-31T09:00:00.549Z,10.00
2018-12-31T09:02:30.304Z,10.00
2018-12-31T09:05:00.146Z,9.90
2018-12-31T09:07:48.925Z,9.90
2018-12-31T09:10:37.747Z,9.90
2018-12-31T09:13:19.157Z,9.90
2018-12-31T09:15:49.112Z,10.00
2018-12-31T09:18:37.841Z,10.00
2018-12-31T09:21:26.763Z,10.00
2018-12-31T09:23:56.756Z,10.00
2018-12-31T09:26:45.601Z,10.10
2018-12-31T09:29:26.675Z,10.10
2018-12-31T09:32:08.008Z,10.20
2018-12-31T09:34:37.878Z,10.30
2018-12-31T09:37:26.513Z,10.30
2018-12-31T09:40:08.280Z,10.30
2018-12-31T09:42:49.028Z,10.30
2018-12-31T09:45:30.586Z,10.30
2018-12-31T09:48:12.274Z,10.30
2018-12-31T09:50:53.607Z,10.30
2018-12-31T09:53:23.472Z,10.30
2018-12-31T09:56:12.365Z,10.30
2018-12-31T09:58:43.920Z,10.30
2018-12-31T10:01:13.995Z,10.40
2018-12-31T10:04:02.740Z,10.40
2018-12-31T10:06:44.241Z,10.40
2018-12-31T10:09:25.937Z,10.50
2018-12-31T10:12:07.197Z,10.50
2018-12-31T10:14:48.886Z,10.50
2018-12-31T10:17:28.621Z,10.50
2018-12-31T10:20:10.267Z,10.50
2018-12-31T10:22:51.500Z,10.50
2018-12-31T10:25:33.005Z,10.50
2018-12-31T10:28:14.727Z,10.50
2018-12-31T10:30:55.739Z,10.60
2018-12-31T10:33:37.451Z,10.60
2018-12-31T10:36:19.158Z,10.70
2018-12-31T10:38:51.222Z,10.70
2018-12-31T10:41:39.286Z,10.70
2018-12-31T10:44:20.498Z,10.70
2018-12-31T10:47:01.891Z,10.70
2018-12-31T10:49:43.470Z,10.80
2018-12-31T10:52:13.870Z,10.80
2018-12-31T10:55:02.795Z,10.80
2018-12-31T10:57:33.009Z,10.70
2018-12-31T11:03:12.245Z,10.80
2018-12-31T11:06:00.973Z,10.80
2018-12-31T11:08:49.635Z,10.80
2018-12-31T11:11:30.687Z,10.90
2018-12-31T11:14:00.331Z,10.90
2018-12-31T11:16:42.088Z,11.00
2018-12-31T11:19:23.275Z,11.00
2018-12-31T11:25:17.159Z,11.00
2018-12-31T11:27:58.497Z,11.00
2018-12-31T11:30:39.451Z,11.00
2018-12-31T11:33:20.867Z,11.00
2018-12-31T11:35:50.873Z,11.00
2018-12-31T11:38:39.503Z,11.00
2018-12-31T11:41:20.943Z,11.00
2018-12-31T11:44:02.843Z,11.00
2018-12-31T11:46:32.910Z,11.00
2018-12-31T11:49:21.597Z,11.00
2018-12-31T11:52:10.951Z,11.00
2018-12-31T11:55:00.001Z,11.00
2018-12-31T11:57:41.837Z,11.00
2018-12-31T12:00:24.582Z,11.10
2018-12-31T12:03:07.263Z,11.20
2018-12-31T12:05:48.545Z,11.20
2018-12-31T12:08:33.797Z,11.30
2018-12-31T12:11:14.561Z,11.30
2018-12-31T12:13:56.151Z,11.40
2018-12-31T12:16:37.815Z,11.40
2018-12-31T12:19:19.540Z,11.40
2018-12-31T12:21:49.271Z,11.50
2018-12-31T12:24:19.092Z,11.50
2018-12-31T12:27:07.974Z,11.50
2018-12-31T12:29:37.606Z,11.50
2018-12-31T12:32:26.747Z,11.50
2018-12-31T12:34:58.277Z,11.50
2018-12-31T12:37:48.623Z,11.50
2018-12-31T12:40:37.555Z,11.50
2018-12-31T12:43:18.779Z,11.60
2018-12-31T12:46:00.455Z,11.60
2018-12-31T12:48:41.630Z,11.60
2018-12-31T12:51:23.007Z,11.60
2018-12-31T12:54:04.497Z,11.60
2018-12-31T12:56:34.269Z,11.60
2018-12-31T12:59:04.244Z,11.60
2018-12-31T13:01:53.016Z,11.60
2018-12-31T13:04:42.052Z,11.70
2018-12-31T13:07:23.444Z,11.70
2018-12-31T13:10:05.121Z,11.70
2018-12-31T13:12:46.483Z,11.70
2018-12-31T13:15:28.134Z,11.70
2018-12-31T13:18:09.955Z,11.60
2018-12-31T13:20:51.138Z,11.70
2018-12-31T13:23:32.840Z,11.80
2018-12-31T13:26:14.472Z,11.80
2018-12-31T13:28:56.508Z,11.80
2018-12-31T13:31:37.723Z,11.80
2018-12-31T13:34:18.628Z,11.70
2018-12-31T13:36:59.965Z,11.70
2018-12-31T13:39:41.591Z,11.60
2018-12-31T13:42:22.659Z,11.60
2018-12-31T13:45:04.564Z,11.60
2018-12-31T13:47:46.209Z,11.50
2018-12-31T13:50:27.540Z,11.40
2018-12-31T13:53:08.827Z,11.40
2018-12-31T13:55:50.241Z,11.40
2018-12-31T13:58:31.293Z,11.40
2018-12-31T14:01:12.594Z,11.40
2018-12-31T14:03:45.305Z,11.30
2018-12-31T14:06:15.346Z,11.30
2018-12-31T14:09:05.272Z,11.30
2018-12-31T14:11:54.073Z,11.30
2018-12-31T14:14:36.562Z,11.30
2018-12-31T14:17:17.540Z,11.20
2018-12-31T14:19:58.881Z,11.20
2018-12-31T14:22:39.812Z,11.20
2018-12-31T14:25:21.412Z,11.20
2018-12-31T14:27:51.189Z,11.20
2018-12-31T14:30:40.080Z,11.20
2018-12-31T14:33:28.867Z,11.20
2018-12-31T14:36:17.994Z,11.10
2018-12-31T14:38:47.710Z,11.10
2018-12-31T14:41:36.777Z,11.10
2018-12-31T14:44:25.686Z,11.00
2018-12-31T14:47:07.542Z,11.00
2018-12-31T14:49:48.357Z,10.90
2018-12-31T14:52:18.272Z,10.90
2018-12-31T14:55:08.634Z,10.90
2018-12-31T14:57:48.672Z,10.90
2018-12-31T15:00:56.355Z,10.90
2018-12-31T15:03:45.398Z,10.90
2018-12-31T15:06:27.119Z,10.90
2018-12-31T15:09:08.799Z,10.90
2018-12-31T15:11:50.095Z,10.80
2018-12-31T15:14:19.880Z,10.80
2018-12-31T15:17:01.400Z,10.80
2018-12-31T15:19:31.709Z,10.80
2018-12-31T15:22:20.633Z,10.80
2018-12-31T15:24:50.649Z,10.80
2018-12-31T15:27:39.715Z,10.70
2018-12-31T15:30:21.531Z,10.80
2018-12-31T15:33:02.999Z,10.70
2018-12-31T15:35:33.198Z,10.70
2018-12-31T15:38:22.638Z,10.70
2018-12-31T15:41:05.415Z,10.70
2018-12-31T15:46:29.008Z,10.70
2018-12-31T15:49:10.333Z,10.70
2018-12-31T15:51:52.803Z,10.70
2018-12-31T15:54:34.774Z,10.70
2018-12-31T15:57:15.673Z,10.60
2018-12-31T15:59:57.205Z,10.60
2018-12-31T16:02:38.351Z,10.70
2018-12-31T16:05:19.381Z,10.60
2018-12-31T16:08:01.008Z,10.60
2018-12-31T16:10:42.992Z,10.60
2018-12-31T16:13:24.515Z,10.60
2018-12-31T16:16:05.618Z,10.60
2018-12-31T16:18:46.998Z,10.60
2018-12-31T16:21:28.702Z,10.60
2018-12-31T16:24:10.405Z,10.60
2018-12-31T16:26:51.573Z,10.60
2018-12-31T16:29:33.243Z,10.60
2018-12-31T16:32:14.477Z,10.60
2018-12-31T16:34:55.443Z,10.60
2018-12-31T16:37:25.169Z,10.60
2018-12-31T16:40:13.986Z,10.50
2018-12-31T16:43:02.666Z,10.50
2018-12-31T16:45:32.680Z,10.50
2018-12-31T16:48:21.419Z,10.50
2018-12-31T16:51:03.099Z,10.50
2018-12-31T16:53:44.970Z,10.40
2018-12-31T16:56:14.979Z,10.40
2018-12-31T16:58:44.549Z,10.40
2018-12-31T17:01:14.351Z,10.40
2018-12-31T17:04:03.177Z,10.40
2018-12-31T17:06:51.775Z,10.40
2018-12-31T17:09:33.496Z,10.40
2018-12-31T17:12:14.288Z,10.40
2018-12-31T17:14:56.062Z,10.40
2018-12-31T17:17:37.347Z,10.40
2018-12-31T17:20:18.707Z,10.40
2018-12-31T17:23:00.288Z,10.40
2018-12-31T17:25:41.962Z,10.40
2018-12-31T17:28:23.644Z,10.40
2018-12-31T17:31:05.391Z,10.40
2018-12-31T17:33:46.789Z,10.40
2018-12-31T17:36:16.810Z,10.30
2018-12-31T17:39:07.796Z,10.30
2018-12-31T17:41:49.578Z,10.30
2018-12-31T17:44:31.203Z,10.20
2018-12-31T17:47:12.765Z,10.20
2018-12-31T17:49:42.543Z,10.20
2018-12-31T17:52:31.359Z,10.10
2018-12-31T17:55:20.059Z,10.10
2018-12-31T17:58:01.531Z,10.00
2018-12-31T18:00:31.459Z,10.00
2018-12-31T18:03:01.459Z,9.90
2018-12-31T18:05:50.507Z,10.00
2018-12-31T18:08:39.186Z,9.90
2018-12-31T18:11:20.412Z,9.90
2018-12-31T18:14:01.785Z,10.00
2018-12-31T18:16:43.600Z,10.00
2018-12-31T18:19:25.422Z,10.00
2018-12-31T18:22:06.958Z,9.90
2018-12-31T18:24:48.417Z,9.90
2018-12-31T18:27:30.407Z,9.80
2018-12-31T18:30:11.354Z,9.80
2018-12-31T18:32:53.181Z,9.90
2018-12-31T18:35:23.181Z,9.90
2018-12-31T18:38:11.927Z,9.90
2018-12-31T18:41:00.657Z,9.90
2018-12-31T18:43:30.623Z,9.90
2018-12-31T18:46:19.260Z,9.90
2018-12-31T18:49:08.315Z,9.90
2018-12-31T18:51:49.179Z,9.90
2018-12-31T18:54:30.929Z,9.90
2018-12-31T18:57:12.113Z,9.90
2018-12-31T18:59:41.792Z,9.90
2018-12-31T19:02:30.745Z,9.90
2018-12-31T19:05:11.705Z,9.90
2018-12-31T19:07:53.327Z,9.90
2018-12-31T19:10:23.209Z,9.80
2018-12-31T19:13:11.909Z,9.80
2018-12-31T19:15:41.687Z,9.90
2018-12-31T19:18:13.422Z,9.80
2018-12-31T19:21:02.125Z,9.90
2018-12-31T19:23:50.914Z,9.90
2018-12-31T19:26:39.578Z,9.90
2018-12-31T19:29:21.078Z,9.80
2018-12-31T19:32:01.999Z,9.90
2018-12-31T19:34:42.912Z,9.90
2018-12-31T19:37:24.741Z,9.90
2018-12-31T19:40:06.544Z,9.80
2018-12-31T19:42:48.004Z,9.80
2018-12-31T19:45:28.948Z,9.90
2018-12-31T19:48:10.727Z,9.80
2018-12-31T19:50:51.833Z,9.80
2018-12-31T19:53:33.252Z,9.80
2018-12-31T19:56:03.004Z,9.80
2018-12-31T19:58:51.848Z,9.80
2018-12-31T20:01:40.735Z,9.80
2018-12-31T20:04:23.974Z,9.80
2018-12-31T20:07:04.815Z,9.80
2018-12-31T20:09:46.295Z,9.80
2018-12-31T20:12:27.627Z,9.80
2018-12-31T20:15:09.379Z,9.80
2018-12-31T20:17:50.733Z,9.80
2018-12-31T20:20:31.922Z,9.80
2018-12-31T20:23:01.800Z,9.80
2018-12-31T20:25:50.613Z,9.80
2018-12-31T20:28:20.643Z,9.80
2018-12-31T20:31:09.345Z,9.80
2018-12-31T20:33:51.136Z,9.80
2018-12-31T20:36:22.143Z,9.80
2018-12-31T20:39:10.885Z,9.80
2018-12-31T20:41:52.347Z,9.80
2018-12-31T20:44:22.433Z,9.80
2018-12-31T20:46:52.055Z,9.70
2018-12-31T20:49:21.795Z,9.80
2018-12-31T20:52:10.685Z,9.80
2018-12-31T20:54:52.269Z,9.70
2018-12-31T20:57:33.296Z,9.80
2018-12-31T21:00:04.076Z,9.70
2018-12-31T21:02:52.964Z,9.80
2018-12-31T21:05:22.805Z,9.70
2018-12-31T21:08:11.994Z,9.80
2018-12-31T21:10:41.716Z,9.80
2018-12-31T21:13:30.536Z,9.70
2018-12-31T21:16:19.205Z,9.70
2018-12-31T21:21:49.135Z,9.60
2018-12-31T21:24:30.400Z,9.60
2018-12-31T21:27:11.902Z,9.60
2018-12-31T21:29:41.797Z,9.70
2018-12-31T21:32:30.801Z,9.70
2018-12-31T21:35:19.777Z,9.60
2018-12-31T21:38:07.412Z,9.50
2018-12-31T21:40:48.502Z,9.40
2018-12-31T21:43:29.277Z,9.30
2018-12-31T21:46:10.404Z,9.20
2018-12-31T21:48:51.913Z,9.20
2018-12-31T21:51:33.474Z,9.20
2018-12-31T21:54:14.946Z,9.20
2018-12-31T21:56:55.928Z,9.20
2018-12-31T21:59:37.607Z,9.30
2018-12-31T22:02:19.092Z,9.30
2018-12-31T22:05:00.201Z,9.30
2018-12-31T22:07:41.654Z,9.30
2018-12-31T22:10:11.416Z,9.30
2018-12-31T22:12:59.996Z,9.30
2018-12-31T22:15:40.857Z,9.30
2018-12-31T22:18:21.954Z,9.30
2018-12-31T22:21:10.878Z,9.30
2018-12-31T22:23:59.722Z,9.30
2018-12-31T22:26:31.264Z,9.30
2018-12-31T22:29:20.089Z,9.30
2018-12-31T22:32:01.329Z,9.30
2018-12-31T22:34:42.953Z,9.30
2018-12-31T22:37:24.466Z,9.20
2018-12-31T22:40:06.152Z,9.30
2018-12-31T22:42:47.922Z,9.30
2018-12-31T22:45:29.265Z,9.30
2018-12-31T22:48:10.791Z,9.30
2018-12-31T22:50:52.231Z,9.20
2018-12-31T22:53:33.933Z,9.30
2018-12-31T22:56:15.395Z,9.20
2018-12-31T22:58:56.751Z,9.30
2018-12-31T23:01:37.749Z,9.30
2018-12-31T23:04:18.667Z,9.30
2018-12-31T23:06:59.639Z,9.30
2018-12-31T23:09:41.301Z,9.30
2018-12-31T23:12:24.401Z,9.30
2018-12-31T23:15:06.525Z,9.30
2018-12-31T23:17:48.000Z,9.30
2018-12-31T23:20:28.999Z,9.20
2018-12-31T23:22:59.116Z,9.20
2018-12-31T23:25:47.897Z,9.20
2018-12-31T23:28:37.001Z,9.20
2018-12-31T23:31:18.478Z,9.20
2018-12-31T23:33:59.818Z,9.30
2018-12-31T23:36:41.140Z,9.30
2018-12-31T23:39:23.021Z,9.20
2018-12-31T23:42:04.483Z,9.30
2018-12-31T23:44:52.670Z,9.30
2018-12-31T23:47:28.949Z,9.30
2018-12-31T23:50:10.470Z,9.20
2018-12-31T23:52:51.809Z,9.20
2018-12-31T23:55:32.781Z,9.20
2018-12-31T23:58:14.423Z,9.20
